Decoded Metar for EHGR (GILZE-RIJEN in NETHERLANDS) (IATA:N/A) | Meteo·Mobile Aviation Weather
aviador You're here:

EHGR Decoded Metar

GILZE-RIJEN in NETHERLANDS
Report Time2018-08-19 05:15:00
UTC Time2018-08-19 05:27:11
Flight Rules vfr VFR
Wind190° at 05 kt
W.Decomp.*RWY 20: 4.9 kt HW 0.8 kt LCW
RWY 28: 0.1 kt HW 5 kt LCW
W.Rank190° ranks 7
Current wind is below 190° avg. (7.4)
Visibility9999 m
Phenomena:N/A
Clouds:Overcast 032 Hf
Expected CloudBase > 400 ft AGL from Temp-Dew spread
Ceiling3,200 ft
Temp15°C (ISA 0)
Dew Point14°C (94% RH)
AAT14.5°C
QNH1021 hPa
Density Alt-3 ft
Elevation43 ft
Report Wrong Elevation
Raw Report
EHGR 190515Z AUTO 19005KT 150V230 9999 OVC032 15/14 Q1021 BLU
20006KT 9999 BKN032=

Extra information for EHGR:More info

Metar Taf Metar & Taf Last 4 Metars F.Rules Stats Wind Profile Meteogram Temp Stats Airport Information Weather charts Add Link Nearby VenuesMetar ALERT Operation Metar Decoded Social comments